Time;durP1;ratioP1;P1;durP2;ratioP2;P2;SDS_P1;SDS_P2;PMS_P1;PMS_P2;Temp;Humidity;BMP_temperature;BMP_pressure;BME280_temperature;BME280_humidity;BME280_pressure;Samples;Min_cycle;Max_cycle;Signal;HPM_P1;HPM_P2
2021/08/26 00:05:42;;;;;;;38.63;30.88;;;486.80;2380.80;;;;;;5031843;28;20025;-79
2021/08/26 00:06:48;;;;;;;37.35;28.67;;;487.00;2380.80;;;;;;5033124;28;20556;-80
2021/08/26 00:09:17;;;;;;;40.13;30.95;;;486.80;2380.80;;;;;;5031456;28;20060;-79
2021/08/26 00:11:47;;;;;;;43.03;33.15;;;486.80;2380.80;;;;;;5031979;28;20053;-79
2021/08/26 00:14:14;;;;;;;44.55;33.55;;;486.60;2380.80;;;;;;5032034;28;20025;-78
2021/08/26 00:16:41;;;;;;;42.28;30.15;;;486.40;2380.80;;;;;;5031520;28;20071;-82
2021/08/26 00:19:08;;;;;;;37.63;28.48;;;461.70;2380.80;;;;;;5032187;28;20087;-81
2021/08/26 00:21:34;;;;;;;38.30;28.92;;;486.60;2380.80;;;;;;5033113;28;20029;-82
2021/08/26 00:24:00;;;;;;;38.92;29.58;;;486.70;2380.80;;;;;;5032915;28;20026;-80
2021/08/26 00:26:26;;;;;;;36.78;28.42;;;486.50;2380.80;;;;;;5032007;28;20045;-82
2021/08/26 00:28:52;;;;;;;37.58;28.52;;;461.70;2380.80;;;;;;5033274;28;20045;-80
2021/08/26 00:31:18;;;;;;;39.58;30.70;;;461.60;2380.80;;;;;;5033967;28;20045;-83
2021/08/26 00:33:44;;;;;;;38.88;27.95;;;486.40;2380.80;;;;;;5035508;28;20029;-81
2021/08/26 00:36:09;;;;;;;37.88;29.20;;;461.70;2380.80;;;;;;5035157;28;20381;-79
2021/08/26 00:38:35;;;;;;;39.65;28.75;;;461.60;2380.80;;;;;;5035302;28;20082;-81
2021/08/26 00:41:01;;;;;;;37.08;27.60;;;461.70;2380.80;;;;;;5036318;28;20035;-81
2021/08/26 00:43:28;;;;;;;37.22;27.48;;;486.50;2380.80;;;;;;5035136;28;20487;-81
2021/08/26 00:45:55;;;;;;;34.03;26.42;;;486.50;2380.80;;;;;;5036430;28;20036;-79
2021/08/26 00:48:25;;;;;;;38.35;28.95;;;486.70;2380.80;;;;;;5035288;28;20095;-81
2021/08/26 00:50:52;;;;;;;39.70;29.40;;;486.80;2380.80;;;;;;5035083;28;20041;-79
2021/08/26 00:53:20;;;;;;;40.13;30.73;;;486.80;2380.80;;;;;;5035032;28;20034;-80
2021/08/26 00:55:46;;;;;;;41.85;29.20;;;486.50;2380.80;;;;;;5034985;28;20124;-79
2021/08/26 00:58:12;;;;;;;39.45;28.33;;;461.70;2380.80;;;;;;5034789;28;20538;-79
2021/08/26 01:00:47;;;;;;;37.92;27.05;;;461.60;2380.80;;;;;;5035063;28;20514;-79
2021/08/26 01:03:14;;;;;;;39.70;28.13;;;461.60;2380.80;;;;;;5035009;28;20026;-79
2021/08/26 01:05:54;;;;;;;38.50;28.42;;;461.50;2380.80;;;;;;5034478;28;20393;-79
2021/08/26 01:08:40;;;;;;;40.50;29.50;;;461.50;2380.80;;;;;;5036078;28;20096;-80
2021/08/26 01:11:07;;;;;;;41.15;28.65;;;461.60;2380.80;;;;;;5036308;28;20108;-81
2021/08/26 01:13:37;;;;;;;40.00;26.60;;;461.50;2380.80;;;;;;5035816;28;20457;-80
2021/08/26 01:16:10;;;;;;;37.58;28.90;;;461.50;2380.80;;;;;;5034667;28;20033;-78
2021/08/26 01:18:38;;;;;;;39.45;28.17;;;461.70;2380.80;;;;;;5034348;28;20033;-81
2021/08/26 01:21:08;;;;;;;35.47;27.92;;;486.40;2380.80;;;;;;5034522;28;20082;-78
2021/08/26 01:23:39;;;;;;;37.67;27.98;;;461.70;2380.80;;;;;;5034567;28;20064;-81
2021/08/26 01:26:07;;;;;;;40.67;28.45;;;486.40;2380.80;;;;;;5034099;28;20025;-80
2021/08/26 01:28:38;;;;;;;39.38;28.35;;;461.70;2380.80;;;;;;5034079;28;20046;-81
2021/08/26 01:31:05;;;;;;;39.75;28.48;;;461.60;2380.80;;;;;;5034305;28;20025;-79
2021/08/26 01:33:31;;;;;;;41.97;30.00;;;461.50;2380.80;;;;;;5033983;28;20036;-79
2021/08/26 01:36:01;;;;;;;37.42;28.58;;;461.40;2380.80;;;;;;5035439;28;20156;-81
2021/08/26 01:38:27;;;;;;;42.92;28.95;;;486.40;2380.80;;;;;;5034151;28;20041;-80
2021/08/26 01:40:53;;;;;;;38.42;28.85;;;461.60;2380.80;;;;;;5035054;28;20373;-79
2021/08/26 01:43:19;;;;;;;43.45;29.10;;;486.40;2380.80;;;;;;5034550;28;20044;-80
2021/08/26 01:45:48;;;;;;;39.33;26.88;;;461.70;2380.80;;;;;;5033998;28;20044;-80
2021/08/26 01:48:18;;;;;;;37.33;28.58;;;486.50;2380.80;;;;;;5033818;28;20088;-80
2021/08/26 01:50:48;;;;;;;42.05;30.38;;;486.50;2380.80;;;;;;5033905;28;20513;-80
2021/08/26 01:53:15;;;;;;;42.42;30.15;;;486.50;2380.80;;;;;;5033727;28;20516;-81
2021/08/26 01:55:41;;;;;;;42.97;28.50;;;461.70;2380.80;;;;;;5033856;28;20473;-79
2021/08/26 01:58:11;;;;;;;41.88;29.13;;;486.50;2380.80;;;;;;5033834;28;20036;-80
2021/08/26 02:00:37;;;;;;;44.90;30.55;;;461.70;2380.80;;;;;;5033439;28;20033;-80
2021/08/26 02:03:03;;;;;;;44.95;29.83;;;461.60;2380.80;;;;;;5033680;28;20053;-79
2021/08/26 02:05:29;;;;;;;45.70;29.83;;;461.60;2380.80;;;;;;5033611;28;20061;-81
2021/08/26 02:07:55;;;;;;;40.97;28.40;;;461.40;2380.80;;;;;;5033341;28;20036;-81
2021/08/26 02:10:22;;;;;;;44.92;30.30;;;461.40;2380.80;;;;;;5034787;28;20023;-79
2021/08/26 02:12:48;;;;;;;41.50;28.30;;;461.30;2380.80;;;;;;5033487;28;20468;-81
2021/08/26 02:15:16;;;;;;;43.22;28.92;;;461.50;2380.80;;;;;;5033141;28;20087;-79
2021/08/26 02:17:42;;;;;;;37.10;27.05;;;461.40;2380.80;;;;;;5033506;28;20112;-80
2021/08/26 02:20:08;;;;;;;35.00;26.90;;;461.50;2380.80;;;;;;5032825;28;20512;-79
2021/08/26 02:22:34;;;;;;;45.45;28.88;;;461.70;2380.80;;;;;;5032388;28;20079;-79
2021/08/26 02:25:00;;;;;;;43.47;28.85;;;461.60;2380.80;;;;;;5032594;28;20041;-80
2021/08/26 02:27:26;;;;;;;41.10;29.63;;;461.40;2380.80;;;;;;5033198;28;20052;-78
2021/08/26 02:29:52;;;;;;;43.30;28.95;;;461.40;2380.80;;;;;;5034232;28;20045;-80
2021/08/26 02:32:18;;;;;;;45.75;29.00;;;461.40;2380.80;;;;;;5032889;28;20029;-79
2021/08/26 02:34:44;;;;;;;43.35;29.20;;;461.40;2380.80;;;;;;5032442;28;20036;-80
2021/08/26 02:37:10;;;;;;;39.78;28.42;;;461.40;2380.80;;;;;;5032253;28;20060;-79
2021/08/26 02:39:36;;;;;;;41.22;29.17;;;461.30;2380.80;;;;;;5033148;28;20021;-81
2021/08/26 02:42:03;;;;;;;38.53;27.38;;;461.40;2380.80;;;;;;5033064;28;20381;-80
2021/08/26 02:44:29;;;;;;;39.08;26.88;;;461.50;2380.80;;;;;;5032621;28;20040;-80
2021/08/26 02:46:56;;;;;;;34.42;25.67;;;461.50;2380.80;;;;;;5034046;28;20025;-80
2021/08/26 02:49:22;;;;;;;36.53;25.48;;;461.50;2380.80;;;;;;5032860;28;20025;-79
2021/08/26 02:51:48;;;;;;;39.28;26.63;;;461.70;2380.80;;;;;;5032624;28;20037;-81
2021/08/26 02:54:14;;;;;;;35.60;25.50;;;461.60;2380.80;;;;;;5032706;28;20030;-78
2021/08/26 02:56:40;;;;;;;39.53;26.42;;;461.40;2380.80;;;;;;5032418;28;20029;-81
2021/08/26 02:59:06;;;;;;;37.17;26.60;;;461.40;2380.80;;;;;;5033778;28;20053;-80
2021/08/26 03:01:32;;;;;;;39.45;26.73;;;461.50;2380.80;;;;;;5034040;28;20061;-79
2021/08/26 03:03:57;;;;;;;43.72;28.30;;;461.50;2380.80;;;;;;5032238;28;20029;-79
2021/08/26 03:06:24;;;;;;;41.70;29.45;;;461.50;2380.80;;;;;;5032702;28;20022;-80
2021/08/26 03:08:50;;;;;;;42.50;28.10;;;461.40;2380.80;;;;;;5032709;28;20034;-79
2021/08/26 03:11:15;;;;;;;45.85;29.48;;;461.30;2380.80;;;;;;5032434;28;20095;-79
2021/08/26 03:13:41;;;;;;;38.17;27.65;;;461.30;2380.80;;;;;;5032650;28;20516;-80
2021/08/26 03:16:07;;;;;;;33.95;26.25;;;461.30;2380.80;;;;;;5032182;28;20043;-81
2021/08/26 03:18:33;;;;;;;38.28;25.95;;;461.60;2380.80;;;;;;5032075;28;20025;-80
2021/08/26 03:20:59;;;;;;;41.50;27.98;;;461.70;2380.80;;;;;;5032306;28;20026;-81
2021/08/26 03:23:25;;;;;;;41.17;27.70;;;461.70;2380.80;;;;;;5032493;28;20072;-79
2021/08/26 03:25:52;;;;;;;36.80;26.08;;;461.60;2380.80;;;;;;5031864;28;20037;-79
2021/08/26 03:28:20;;;;;;;36.38;25.38;;;461.70;2380.80;;;;;;5031790;28;20636;-79
2021/08/26 03:30:46;;;;;;;40.85;27.33;;;461.70;2380.80;;;;;;5033742;28;20113;-79
2021/08/26 03:33:12;;;;;;;40.10;28.10;;;461.50;2380.80;;;;;;5032341;28;20134;-80
2021/08/26 03:35:38;;;;;;;40.05;27.08;;;461.40;2380.80;;;;;;5032403;28;20472;-81
2021/08/26 03:38:04;;;;;;;43.38;28.30;;;461.40;2380.80;;;;;;5033618;28;20100;-79
2021/08/26 03:40:30;;;;;;;39.95;27.33;;;461.10;2380.80;;;;;;5032034;28;20033;-79
2021/08/26 03:42:56;;;;;;;43.50;27.67;;;461.50;2380.80;;;;;;5033491;28;20025;-81
2021/08/26 03:45:22;;;;;;;42.78;28.88;;;461.40;2380.80;;;;;;5031859;28;20034;-80
2021/08/26 03:47:48;;;;;;;39.70;28.00;;;461.60;2380.80;;;;;;5032190;28;20025;-78
2021/08/26 03:50:14;;;;;;;40.25;28.17;;;461.60;2380.80;;;;;;5032180;28;20036;-81
2021/08/26 03:52:40;;;;;;;42.42;27.25;;;461.40;2380.80;;;;;;5032005;28;20057;-79
2021/08/26 03:55:06;;;;;;;41.38;27.90;;;461.30;2380.80;;;;;;5032115;28;20496;-81
2021/08/26 03:57:32;;;;;;;42.45;27.00;;;461.10;2380.80;;;;;;5032071;28;20112;-79
2021/08/26 03:59:58;;;;;;;39.10;26.23;;;461.10;2380.80;;;;;;5031893;28;20116;-79
2021/08/26 04:02:24;;;;;;;44.25;28.25;;;461.10;2380.80;;;;;;5032266;28;20022;-79
2021/08/26 04:04:50;;;;;;;38.25;25.25;;;461.30;2380.80;;;;;;5031939;28;20463;-80
2021/08/26 04:07:18;;;;;;;40.13;26.42;;;461.40;2380.80;;;;;;5035418;28;20032;-81
2021/08/26 04:09:45;;;;;;;39.47;25.30;;;461.60;2380.80;;;;;;5037493;28;20108;-79
2021/08/26 04:12:11;;;;;;;38.42;26.52;;;461.70;2380.80;;;;;;5035850;28;20029;-81
2021/08/26 04:14:37;;;;;;;39.50;26.77;;;461.00;2380.80;;;;;;5035412;28;20034;-81
2021/08/26 04:17:04;;;;;;;36.22;24.83;;;461.60;2380.80;;;;;;5035858;28;20064;-81
2021/08/26 04:19:30;;;;;;;37.65;26.27;;;486.40;2380.80;;;;;;5035712;28;20032;-81
2021/08/26 04:21:56;;;;;;;40.60;28.90;;;461.70;2380.80;;;;;;5035435;28;20026;-80
2021/08/26 04:24:21;;;;;;;40.60;26.52;;;461.50;2380.80;;;;;;5035158;28;20029;-79
2021/08/26 04:26:47;;;;;;;39.75;25.75;;;461.60;2380.80;;;;;;5035593;28;20029;-81
2021/08/26 04:29:13;;;;;;;37.13;25.08;;;461.70;2380.80;;;;;;5034989;28;20099;-79
2021/08/26 04:31:39;;;;;;;39.88;26.30;;;461.60;2380.80;;;;;;5035447;28;20021;-79
2021/08/26 04:34:05;;;;;;;41.83;27.92;;;461.70;2380.80;;;;;;5035363;28;20041;-80
2021/08/26 04:36:31;;;;;;;39.50;25.30;;;461.40;2380.80;;;;;;5035226;28;20048;-79
2021/08/26 04:38:57;;;;;;;36.05;24.70;;;461.40;2380.80;;;;;;5035350;28;20122;-79
2021/08/26 04:41:23;;;;;;;40.92;26.88;;;461.60;2380.80;;;;;;5035076;28;20108;-81
2021/08/26 04:43:49;;;;;;;41.30;27.25;;;461.50;2380.80;;;;;;5035250;28;20026;-80
2021/08/26 04:46:14;;;;;;;45.75;28.33;;;461.50;2380.80;;;;;;5035135;28;20473;-79
2021/08/26 04:48:40;;;;;;;48.75;28.58;;;461.40;2380.80;;;;;;5036143;28;20025;-79
2021/08/26 04:51:06;;;;;;;47.03;29.40;;;461.40;2380.80;;;;;;5035994;28;20465;-79
2021/08/26 04:53:32;;;;;;;46.08;29.67;;;461.30;2380.80;;;;;;5035007;28;20061;-80
2021/08/26 04:55:57;;;;;;;42.42;26.92;;;461.40;2380.80;;;;;;5034667;28;20124;-80
2021/08/26 04:58:24;;;;;;;40.38;27.48;;;461.50;2380.80;;;;;;5034985;28;20030;-78
2021/08/26 05:00:50;;;;;;;42.63;27.20;;;461.10;2380.80;;;;;;5034824;28;20029;-81
2021/08/26 05:03:16;;;;;;;43.70;26.92;;;461.10;2380.80;;;;;;5034553;28;20029;-78
2021/08/26 05:05:42;;;;;;;47.70;29.85;;;461.00;2380.80;;;;;;5034817;28;20465;-80
2021/08/26 05:08:07;;;;;;;46.92;28.85;;;461.00;2380.80;;;;;;5034747;28;20117;-78
2021/08/26 05:10:33;;;;;;;43.47;27.70;;;461.00;2380.80;;;;;;5034353;28;20453;-81
2021/08/26 05:12:59;;;;;;;44.08;28.00;;;461.00;2380.80;;;;;;5034565;28;20033;-78
2021/08/26 05:15:25;;;;;;;45.67;26.75;;;460.90;2380.80;;;;;;5034586;28;20036;-80
2021/08/26 05:17:51;;;;;;;50.85;29.48;;;460.80;2380.80;;;;;;5033185;28;20028;-79
2021/08/26 05:20:17;;;;;;;41.50;26.90;;;460.90;2380.80;;;;;;5034633;28;20404;-80
2021/08/26 05:22:42;;;;;;;40.33;27.35;;;461.10;2380.80;;;;;;5034598;28;20488;-80
2021/08/26 05:25:08;;;;;;;36.78;25.58;;;461.30;2380.80;;;;;;5035095;28;20044;-80
2021/08/26 05:27:34;;;;;;;43.70;26.67;;;461.40;2380.80;;;;;;5034498;28;20514;-80
2021/08/26 05:30:00;;;;;;;42.42;27.98;;;461.50;2380.80;;;;;;5034175;28;20136;-80
2021/08/26 05:32:26;;;;;;;36.58;25.75;;;461.60;2380.80;;;;;;5034358;28;20025;-78
2021/08/26 05:34:52;;;;;;;38.22;26.25;;;461.60;2380.80;;;;;;5034275;28;20388;-80
2021/08/26 05:37:17;;;;;;;37.72;25.35;;;461.70;2380.80;;;;;;5035183;28;20041;-80
2021/08/26 05:39:43;;;;;;;36.88;27.15;;;461.70;2380.80;;;;;;5035273;28;20022;-78
2021/08/26 05:42:09;;;;;;;37.42;26.23;;;461.70;2380.80;;;;;;5034180;28;20116;-80
2021/08/26 05:44:35;;;;;;;39.05;27.80;;;461.70;2380.80;;;;;;5033791;28;20037;-80
2021/08/26 05:47:01;;;;;;;38.72;26.25;;;486.40;2380.80;;;;;;5033706;28;20030;-80
2021/08/26 05:49:27;;;;;;;38.30;26.42;;;486.40;2380.80;;;;;;5034110;28;20048;-81
2021/08/26 05:51:56;;;;;;;36.38;25.90;;;486.40;2380.80;;;;;;5033682;28;20032;-80
2021/08/26 05:54:22;;;;;;;38.35;27.00;;;486.40;2380.80;;;;;;5035272;28;20452;-79
2021/08/26 05:56:48;;;;;;;41.30;27.63;;;486.40;2380.80;;;;;;5033766;28;20030;-80
2021/08/26 05:59:13;;;;;;;37.35;25.73;;;486.40;2380.80;;;;;;5033497;28;20032;-79
2021/08/26 06:01:39;;;;;;;39.15;27.38;;;461.70;2380.80;;;;;;5033771;28;20473;-80
2021/08/26 06:04:05;;;;;;;41.33;27.27;;;461.60;2380.80;;;;;;5034603;28;20033;-80
2021/08/26 06:06:31;;;;;;;33.22;25.25;;;461.70;2380.80;;;;;;5033379;28;20469;-81
2021/08/26 06:08:56;;;;;;;37.88;25.55;;;461.70;2380.80;;;;;;5034621;28;20021;-80
2021/08/26 06:11:22;;;;;;;39.17;27.52;;;461.70;2380.80;;;;;;5033614;28;20022;-80
2021/08/26 06:13:48;;;;;;;37.22;25.50;;;486.40;2380.80;;;;;;5033198;28;20420;-80
2021/08/26 06:16:14;;;;;;;36.55;25.02;;;486.50;2380.80;;;;;;5033582;28;20033;-82
2021/08/26 06:18:39;;;;;;;42.67;28.58;;;461.70;2380.80;;;;;;5033095;28;20408;-79
2021/08/26 06:21:05;;;;;;;38.38;27.20;;;461.70;2380.80;;;;;;5032630;28;20030;-80
2021/08/26 06:23:31;;;;;;;40.72;27.25;;;461.60;2380.80;;;;;;5032676;28;20373;-80
2021/08/26 06:25:57;;;;;;;41.72;27.67;;;461.70;2380.80;;;;;;5034269;28;20045;-81
2021/08/26 06:28:23;;;;;;;43.47;28.83;;;461.50;2380.80;;;;;;5032473;28;20050;-79
2021/08/26 06:30:49;;;;;;;45.58;30.55;;;461.50;2380.80;;;;;;5033295;28;20025;-79
2021/08/26 06:33:15;;;;;;;42.72;26.85;;;461.50;2380.80;;;;;;5033884;28;20104;-81
2021/08/26 06:35:40;;;;;;;40.45;26.17;;;461.60;2380.80;;;;;;5032293;28;20484;-81
2021/08/26 06:38:06;;;;;;;39.78;28.08;;;461.70;2380.80;;;;;;5033544;28;20436;-80
2021/08/26 06:40:32;;;;;;;42.45;28.83;;;486.50;2380.80;;;;;;5032625;28;20021;-81
2021/08/26 06:42:58;;;;;;;43.78;28.23;;;486.40;2380.80;;;;;;5032830;28;20477;-80
2021/08/26 06:45:23;;;;;;;40.50;28.33;;;486.60;2380.80;;;;;;5032640;28;20065;-80
2021/08/26 06:47:49;;;;;;;44.10;28.65;;;461.70;2380.80;;;;;;5032376;28;20025;-80
2021/08/26 06:50:15;;;;;;;36.03;25.30;;;486.40;2380.80;;;;;;5031951;28;20022;-80
2021/08/26 06:52:42;;;;;;;40.45;27.77;;;486.50;2380.80;;;;;;5033667;28;20025;-79
2021/08/26 06:55:08;;;;;;;38.67;26.60;;;486.70;2380.80;;;;;;5033842;28;20095;-80
2021/08/26 06:57:34;;;;;;;40.15;27.85;;;486.70;2380.80;;;;;;5032851;28;20152;-79
2021/08/26 06:59:59;;;;;;;39.47;27.60;;;486.80;2380.80;;;;;;5032831;28;20134;-81
2021/08/26 07:02:25;;;;;;;34.28;23.67;;;486.90;2380.80;;;;;;5032420;28;20044;-80
2021/08/26 07:04:51;;;;;;;35.42;25.48;;;486.90;2380.80;;;;;;5032675;28;20505;-80
2021/08/26 07:07:17;;;;;;;36.28;25.73;;;486.90;2380.80;;;;;;5032810;28;20030;-79
2021/08/26 07:09:43;;;;;;;33.45;24.23;;;486.90;2380.80;;;;;;5033565;28;20060;-78
2021/08/26 07:12:08;;;;;;;36.88;25.08;;;486.70;2380.80;;;;;;5033853;28;20486;-79
2021/08/26 07:14:34;;;;;;;36.97;24.80;;;486.80;2380.80;;;;;;5032810;28;20033;-79
2021/08/26 07:17:00;;;;;;;39.90;25.75;;;487.00;2380.80;;;;;;5032271;28;20033;-80
2021/08/26 07:19:26;;;;;;;35.47;23.77;;;487.10;2380.80;;;;;;5032579;28;20029;-81
2021/08/26 07:21:52;;;;;;;33.92;24.27;;;487.20;2380.80;;;;;;5032185;28;20048;-81
2021/08/26 07:24:17;;;;;;;33.20;22.30;;;487.30;2380.80;;;;;;5032073;28;20116;-80
2021/08/26 07:26:43;;;;;;;28.90;21.60;;;512.10;2380.80;;;;;;5032481;28;20029;-79
2021/08/26 07:29:09;;;;;;;31.77;22.90;;;512.10;2380.80;;;;;;5031948;28;20041;-80
2021/08/26 07:31:36;;;;;;;30.80;22.33;;;512.00;2380.80;;;;;;5032423;28;20424;-80
2021/08/26 07:34:02;;;;;;;33.25;22.67;;;512.30;2380.80;;;;;;5032273;28;20469;-79
2021/08/26 07:36:27;;;;;;;32.67;23.88;;;512.50;2380.80;;;;;;5032074;28;20033;-79
2021/08/26 07:38:53;;;;;;;30.45;21.63;;;512.60;2380.80;;;;;;5033168;28;20025;-79
2021/08/26 07:41:19;;;;;;;28.35;21.92;;;512.70;2380.80;;;;;;5034699;28;20037;-79
2021/08/26 07:43:45;;;;;;;28.52;21.23;;;512.80;2380.80;;;;;;5036027;28;20149;-79
2021/08/26 07:46:12;;;;;;;27.20;19.50;;;537.60;2406.40;;;;;;5036256;28;20491;-80
2021/08/26 07:48:38;;;;;;;25.70;19.58;;;537.80;2406.40;;;;;;5037769;28;20060;-79
2021/08/26 07:51:04;;;;;;;26.30;19.67;;;538.00;2406.40;;;;;;5037286;28;20033;-80
2021/08/26 07:53:31;;;;;;;24.00;18.45;;;537.70;2406.40;;;;;;5036205;28;20030;-81
2021/08/26 07:55:57;;;;;;;26.50;19.67;;;538.00;2406.40;;;;;;5036143;28;20433;-79
2021/08/26 07:58:24;;;;;;;25.15;19.27;;;538.10;2406.40;;;;;;5035854;28;20029;-80
2021/08/26 08:00:50;;;;;;;24.40;19.95;;;538.30;2406.40;;;;;;5036152;28;20025;-78
2021/08/26 08:03:16;;;;;;;23.70;18.73;;;538.50;2406.40;;;;;;5036041;28;20033;-80
2021/08/26 08:05:41;;;;;;;24.75;17.00;;;538.40;2406.40;;;;;;5035638;28;20080;-80
2021/08/26 08:08:07;;;;;;;22.65;18.42;;;538.40;2406.40;;;;;;5035727;28;20037;-79
2021/08/26 08:10:33;;;;;;;26.23;19.58;;;538.40;2406.40;;;;;;5035428;28;20091;-78
2021/08/26 08:12:59;;;;;;;25.30;19.63;;;538.30;2406.40;;;;;;5036468;28;20100;-79
2021/08/26 08:15:24;;;;;;;25.25;18.33;;;538.40;2406.40;;;;;;5035530;28;20036;-80
2021/08/26 08:17:50;;;;;;;34.42;27.10;;;563.20;2432.00;;;;;;5036815;28;20461;-78
2021/08/26 08:20:16;;;;;;;24.83;18.80;;;563.30;2432.00;;;;;;5035006;28;20022;-78
2021/08/26 08:22:43;;;;;;;24.30;18.60;;;538.20;2406.40;;;;;;5036407;28;20022;-78
2021/08/26 08:25:09;;;;;;;21.27;17.52;;;538.30;2406.40;;;;;;5034300;28;20072;-78
2021/08/26 08:27:35;;;;;;;22.20;16.90;;;538.20;2406.40;;;;;;5035055;28;20029;-79
2021/08/26 08:30:02;;;;;;;18.85;14.88;;;538.30;2406.40;;;;;;5034840;28;20481;-78
2021/08/26 08:32:28;;;;;;;20.23;15.77;;;538.40;2406.40;;;;;;5035005;28;20061;-77
2021/08/26 08:34:54;;;;;;;22.27;18.23;;;538.50;2406.40;;;;;;5035588;28;20060;-79
2021/08/26 08:37:20;;;;;;;19.45;15.85;;;563.30;2432.00;;;;;;5036583;28;20030;-78
2021/08/26 08:39:46;;;;;;;16.98;14.95;;;563.40;2432.00;;;;;;5035199;28;20022;-79
2021/08/26 08:42:12;;;;;;;19.45;15.95;;;563.40;2432.00;;;;;;5036270;28;20488;-78
2021/08/26 08:44:38;;;;;;;17.83;15.10;;;563.40;2432.00;;;;;;5035113;28;20034;-78
2021/08/26 08:47:04;;;;;;;20.67;16.50;;;538.40;2406.40;;;;;;5034812;28;20021;-77
2021/08/26 08:49:34;;;;;;;20.75;15.35;;;538.50;2406.40;;;;;;5035154;28;20043;-75
2021/08/26 08:51:59;;;;;;;18.73;15.70;;;563.50;2432.00;;;;;;5034861;28;20362;-76
2021/08/26 08:54:25;;;;;;;20.17;15.35;;;563.30;2432.00;;;;;;5034778;28;20032;-75
2021/08/26 08:56:52;;;;;;;22.65;15.75;;;563.60;2432.00;;;;;;5035954;28;20029;-78
2021/08/26 08:59:18;;;;;;;17.95;13.80;;;563.80;2432.00;;;;;;5034894;28;20069;-77
2021/08/26 09:02:02;;;;;;;23.55;17.92;;;563.80;2432.00;;;;;;5035837;28;20109;-77
2021/08/26 09:04:28;;;;;;;19.67;14.52;;;564.00;2432.00;;;;;;5033580;28;20033;-77
2021/08/26 09:06:54;;;;;;;20.50;18.00;;;563.90;2432.00;;;;;;5032314;28;20380;-77
2021/08/26 09:09:20;;;;;;;18.08;15.55;;;563.90;2432.00;;;;;;5033219;28;20033;-76
2021/08/26 09:11:54;;;;;;;19.55;16.00;;;564.00;2432.00;;;;;;5033157;28;20041;-77
2021/08/26 09:14:24;;;;;;;19.38;15.20;;;564.00;2432.00;;;;;;5033309;28;20121;-78
2021/08/26 09:16:51;;;;;;;20.63;16.23;;;564.00;2432.00;;;;;;5035072;28;20029;-80
2021/08/26 09:19:24;;;;;;;19.75;17.20;;;563.90;2432.00;;;;;;5033853;28;20270;-76
2021/08/26 09:21:50;;;;;;;19.95;16.20;;;563.90;2432.00;;;;;;5033099;28;20021;-79
2021/08/26 09:24:17;;;;;;;17.95;15.55;;;563.70;2432.00;;;;;;5034248;28;20466;-79
2021/08/26 09:26:47;;;;;;;23.35;20.63;;;563.80;2432.00;;;;;;5033103;28;20029;-80
2021/08/26 09:29:14;;;;;;;19.50;16.05;;;564.00;2432.00;;;;;;5033470;28;20536;-79
2021/08/26 09:31:42;;;;;;;17.30;15.05;;;589.00;2432.00;;;;;;5033467;28;20079;-79
2021/08/26 09:34:14;;;;;;;21.15;15.02;;;588.90;2432.00;;;;;;5034096;28;20522;-77
2021/08/26 09:36:46;;;;;;;19.55;15.15;;;589.20;2432.00;;;;;;5033636;28;20025;-77
2021/08/26 09:39:17;;;;;;;18.10;15.98;;;589.00;2432.00;;;;;;5033949;28;20381;-78
2021/08/26 09:41:47;;;;;;;25.33;16.40;;;589.20;2432.00;;;;;;5033944;28;20052;-78
2021/08/26 09:44:21;;;;;;;22.75;16.73;;;589.60;2432.00;;;;;;5033721;28;20350;-78
2021/08/26 09:46:51;;;;;;;22.27;16.75;;;589.60;2432.00;;;;;;5033778;28;20025;-77
2021/08/26 09:49:22;;;;;;;20.58;15.20;;;589.70;2432.00;;;;;;5034489;28;20051;-77
2021/08/26 09:52:09;;;;;;;19.20;16.30;;;589.70;2432.00;;;;;;5034245;28;20026;-80
2021/08/26 09:54:47;;;;;;;27.23;21.83;;;614.40;2432.00;;;;;;5033787;28;20488;-80
2021/08/26 09:57:30;;;;;;;16.77;14.98;;;614.50;2432.00;;;;;;5034631;28;20358;-81
2021/08/26 10:00:00;;;;;;;18.50;16.48;;;614.50;2432.00;;;;;;5035040;28;20025;-78
2021/08/26 10:02:28;;;;;;;15.73;13.75;;;614.60;2432.00;;;;;;5034840;28;20026;-79
2021/08/26 10:04:55;;;;;;;14.25;12.75;;;614.70;2432.00;;;;;;5033270;28;20033;-80
2021/08/26 10:07:23;;;;;;;14.07;12.43;;;614.60;2432.00;;;;;;5033620;28;20168;-80
2021/08/26 10:09:49;;;;;;;14.52;12.63;;;615.00;2432.00;;;;;;5033720;28;20496;-79
2021/08/26 10:12:16;;;;;;;13.07;11.57;;;640.20;2432.00;;;;;;5033656;28;20025;-78
2021/08/26 10:14:47;;;;;;;14.63;13.02;;;640.60;2432.00;;;;;;5034485;28;20030;-77
2021/08/26 10:17:14;;;;;;;14.27;11.50;;;665.60;2432.00;;;;;;5033544;28;20457;-78
2021/08/26 10:19:41;;;;;;;15.45;13.20;;;640.70;2432.00;;;;;;5033538;28;20025;-78
2021/08/26 10:22:08;;;;;;;13.77;11.77;;;665.80;2432.00;;;;;;5033135;28;20128;-78
2021/08/26 10:24:34;;;;;;;14.13;11.73;;;665.60;2432.00;;;;;;5033245;28;20429;-78
2021/08/26 10:27:05;;;;;;;13.50;11.88;;;665.90;2432.00;;;;;;5033341;28;20121;-77
2021/08/26 10:29:34;;;;;;;15.05;12.55;;;666.20;2432.00;;;;;;5032706;28;20053;-77
2021/08/26 10:32:01;;;;;;;14.07;12.07;;;;;;;;;;5033145;28;20025;-78
2021/08/26 10:34:31;;;;;;;12.50;10.32;;;691.50;2432.00;;;;;;5032552;28;20477;-78
2021/08/26 10:36:56;;;;;;;14.57;11.00;;;691.60;2432.00;;;;;;5032417;28;20024;-78
2021/08/26 10:39:33;;;;;;;14.52;12.18;;;666.20;2432.00;;;;;;5030024;28;20025;-77
2021/08/26 10:42:28;;;;;;;14.68;12.38;;;665.90;2432.00;;;;;;5032314;28;20107;-77
2021/08/26 10:45:11;;;;;;;14.95;11.57;;;665.60;2432.00;;;;;;5031484;28;20041;-78
2021/08/26 10:47:49;;;;;;;12.07;10.88;;;665.90;2432.00;;;;;;5028767;28;20025;-77
2021/08/26 10:50:29;;;;;;;12.10;10.85;;;666.10;2432.00;;;;;;5031287;28;20029;-78
2021/08/26 10:53:00;;;;;;;13.70;11.45;;;666.40;2432.00;;;;;;5032534;28;20022;-78
2021/08/26 10:55:37;;;;;;;12.53;10.77;;;691.30;2432.00;;;;;;5030636;28;20455;-77
2021/08/26 10:58:21;;;;;;;14.48;11.55;;;691.70;2432.00;;;;;;5031942;28;20500;-78
2021/08/26 11:00:51;;;;;;;14.65;10.95;;;716.80;2432.00;;;;;;5028327;28;20112;-78
2021/08/26 11:03:35;;;;;;;13.80;11.98;;;717.00;2432.00;;;;;;5030981;28;20084;-77
2021/08/26 11:06:01;;;;;;;14.38;11.30;;;717.20;2432.00;;;;;;5031227;28;20120;-77
2021/08/26 11:08:33;;;;;;;12.73;10.55;;;717.40;2432.00;;;;;;5030849;28;20035;-77
2021/08/26 11:11:28;;;;;;;11.20;9.75;;;717.40;2432.00;;;;;;5031292;28;20032;-77
2021/08/26 11:14:17;;;;;;;12.25;10.63;;;742.40;2432.00;;;;;;5030895;28;20032;-77
2021/08/26 11:16:48;;;;;;;11.88;10.52;;;742.40;2432.00;;;;;;5028322;28;20026;-77
2021/08/26 11:19:17;;;;;;;12.52;11.15;;;742.50;2432.00;;;;;;5031031;28;20021;-78
2021/08/26 11:21:48;;;;;;;13.23;10.27;;;717.30;2432.00;;;;;;5032119;28;20036;-76
2021/08/26 11:24:14;;;;;;;12.90;9.73;;;717.30;2432.00;;;;;;5030846;28;20033;-76
2021/08/26 11:26:57;;;;;;;16.65;11.45;;;717.20;2432.00;;;;;;5032406;28;20040;-76
2021/08/26 11:29:23;;;;;;;11.18;9.85;;;742.50;2432.00;;;;;;5028820;28;20046;-76
2021/08/26 11:31:55;;;;;;;11.77;10.57;;;742.80;2432.00;;;;;;5030180;28;20028;-77
2021/08/26 11:34:32;;;;;;;;;;;742.80;2432.00;;;;;;5030140;28;20033;-76
2021/08/26 11:37:03;;;;;;;11.88;10.07;;;743.00;2432.00;;;;;;5030467;28;19909;-77
2021/08/26 11:39:32;;;;;;;10.73;9.60;;;743.10;2432.00;;;;;;5029949;28;20026;-77
2021/08/26 11:41:59;;;;;;;11.45;10.25;;;768.00;2432.00;;;;;;5031147;28;20080;-78
2021/08/26 11:44:26;;;;;;;10.70;9.60;;;743.30;2432.00;;;;;;5032089;28;20529;-77
2021/08/26 11:46:52;;;;;;;12.10;10.85;;;768.00;2406.40;;;;;;5030053;28;20108;-76
2021/08/26 11:49:17;;;;;;;11.55;9.73;;;743.30;2380.80;;;;;;5030799;28;20112;-77
2021/08/26 11:51:43;;;;;;;12.02;10.48;;;768.50;2406.40;;;;;;5030534;28;20483;-77
2021/08/26 11:54:18;;;;;;;11.00;9.80;;;768.50;2329.60;;;;;;5032786;28;20107;-76
2021/08/26 11:56:53;;;;;;;11.50;10.27;;;742.90;2380.80;;;;;;5030186;28;20065;-76
2021/08/26 11:59:24;;;;;;;10.90;9.80;;;742.60;2432.00;;;;;;5030266;28;20052;-77
2021/08/26 12:01:49;;;;;;;14.10;11.02;;;742.60;2432.00;;;;;;5030807;28;20106;-77
2021/08/26 12:04:15;;;;;;;12.75;11.48;;;743.00;2406.40;;;;;;5030619;28;20484;-77
2021/08/26 12:06:48;;;;;;;12.57;10.32;;;743.30;2380.80;;;;;;5029885;28;20033;-77